createdAt,value
2022-07-25T00:01:08.644Z,19.50
2022-07-25T00:03:39.125Z,19.50
2022-07-25T00:06:08.041Z,19.50
2022-07-25T00:08:43.082Z,19.40
2022-07-25T00:11:11.168Z,19.40
2022-07-25T00:13:39.197Z,19.40
2022-07-25T00:16:07.963Z,19.30
2022-07-25T00:18:36.098Z,19.30
2022-07-25T00:21:04.324Z,19.30
2022-07-25T00:23:32.364Z,19.30
2022-07-25T00:26:01.806Z,19.30
2022-07-25T00:28:29.905Z,19.30
2022-07-25T00:30:58.032Z,19.30
2022-07-25T00:33:26.200Z,19.40
2022-07-25T00:35:54.313Z,19.40
2022-07-25T00:38:22.342Z,19.40
2022-07-25T00:40:55.471Z,19.40
2022-07-25T00:43:25.417Z,19.50
2022-07-25T00:45:53.547Z,19.50
2022-07-25T00:48:21.605Z,19.50
2022-07-25T00:50:49.674Z,19.50
2022-07-25T00:53:17.960Z,19.50
2022-07-25T00:55:47.435Z,19.50
2022-07-25T00:58:15.484Z,19.40
2022-07-25T01:00:44.987Z,19.40
2022-07-25T01:03:13.190Z,19.40
2022-07-25T01:05:41.656Z,19.40
2022-07-25T01:08:10.927Z,19.40
2022-07-25T01:10:39.802Z,19.40
2022-07-25T01:13:08.488Z,19.30
2022-07-25T01:15:36.749Z,19.30
2022-07-25T01:18:08.863Z,19.30
2022-07-25T01:20:38.337Z,19.20
2022-07-25T01:23:06.513Z,19.20
2022-07-25T01:25:34.555Z,19.20
2022-07-25T01:28:02.640Z,19.30
2022-07-25T01:30:30.785Z,19.30
2022-07-25T01:32:58.817Z,19.30
2022-07-25T01:35:27.083Z,19.30
2022-07-25T01:37:56.471Z,19.20
2022-07-25T01:40:24.500Z,19.20
2022-07-25T01:42:52.592Z,19.30
2022-07-25T01:45:20.724Z,19.30
2022-07-25T01:47:48.756Z,19.30
2022-07-25T01:50:16.852Z,19.30
2022-07-25T01:52:45.238Z,19.30
2022-07-25T01:55:14.960Z,19.40
2022-07-25T01:57:49.382Z,19.40
2022-07-25T02:00:18.874Z,19.50
2022-07-25T02:02:47.579Z,19.60
2022-07-25T02:05:16.665Z,19.60
2022-07-25T02:07:44.760Z,19.60
2022-07-25T02:10:14.145Z,19.60
2022-07-25T02:12:42.200Z,19.60
2022-07-25T02:15:11.028Z,19.70
2022-07-25T02:17:39.309Z,19.80
2022-07-25T02:20:08.459Z,19.90
2022-07-25T02:22:36.541Z,20.00
2022-07-25T02:25:04.783Z,20.10
2022-07-25T02:27:34.235Z,20.20
2022-07-25T02:30:02.283Z,20.20
2022-07-25T02:32:30.319Z,20.10
2022-07-25T02:34:59.183Z,19.90
2022-07-25T02:37:27.209Z,19.80
2022-07-25T02:39:55.295Z,19.70
2022-07-25T02:42:23.346Z,19.60
2022-07-25T02:44:53.108Z,19.60
2022-07-25T02:47:21.157Z,19.60
2022-07-25T02:49:49.249Z,19.70
2022-07-25T02:52:17.324Z,19.80
2022-07-25T02:54:45.322Z,20.00
2022-07-25T02:57:13.388Z,20.10
2022-07-25T02:59:41.511Z,20.10
2022-07-25T03:02:10.936Z,20.10
2022-07-25T03:04:39.021Z,19.90
2022-07-25T03:07:07.150Z,19.70
2022-07-25T03:09:35.264Z,19.50
2022-07-25T03:12:03.318Z,19.30
2022-07-25T03:14:31.473Z,19.20
2022-07-25T03:16:59.642Z,19.10
2022-07-25T03:19:29.321Z,19.00
2022-07-25T03:21:57.358Z,18.90
2022-07-25T03:24:25.782Z,18.80
2022-07-25T03:26:55.045Z,18.70
2022-07-25T03:29:23.084Z,18.70
2022-07-25T03:31:51.299Z,18.60
2022-07-25T03:34:19.518Z,18.50
2022-07-25T03:36:49.053Z,18.50
2022-07-25T03:39:17.205Z,18.40
2022-07-25T03:41:45.471Z,18.40
2022-07-25T03:44:13.632Z,18.40
2022-07-25T03:46:41.721Z,18.50
2022-07-25T03:49:09.764Z,18.60
2022-07-25T03:51:37.853Z,18.70
2022-07-25T03:54:09.229Z,18.70
2022-07-25T03:56:40.287Z,18.80
2022-07-25T03:59:13.521Z,18.90
2022-07-25T04:01:42.216Z,19.00
2022-07-25T04:04:11.041Z,19.10
2022-07-25T04:06:39.712Z,19.20
2022-07-25T04:09:11.241Z,19.30
2022-07-25T04:11:39.505Z,19.30
2022-07-25T04:14:08.376Z,19.40
2022-07-25T04:16:36.912Z,19.50
2022-07-25T04:19:06.190Z,19.60
2022-07-25T04:21:34.582Z,19.60
2022-07-25T04:24:02.856Z,19.70
2022-07-25T04:26:32.541Z,19.80
2022-07-25T04:29:03.472Z,19.80
2022-07-25T04:31:31.912Z,19.90
2022-07-25T04:34:00.208Z,20.00
2022-07-25T04:36:28.259Z,20.00
2022-07-25T04:38:56.325Z,20.10
2022-07-25T04:41:24.355Z,20.10
2022-07-25T04:43:53.902Z,20.10
2022-07-25T04:46:23.129Z,20.20
2022-07-25T04:48:51.733Z,20.20
2022-07-25T04:51:20.336Z,20.20
2022-07-25T04:53:48.505Z,20.20
2022-07-25T04:56:16.809Z,20.20
2022-07-25T04:58:45.051Z,20.20
2022-07-25T05:01:14.630Z,20.10
2022-07-25T05:03:50.528Z,20.00
2022-07-25T05:06:19.513Z,20.00
2022-07-25T05:08:48.113Z,19.90
2022-07-25T05:11:16.176Z,19.80
2022-07-25T05:13:44.616Z,19.80
2022-07-25T05:16:14.295Z,19.90
2022-07-25T05:18:42.490Z,19.90
2022-07-25T05:21:12.188Z,19.90
2022-07-25T05:23:40.484Z,20.00
2022-07-25T05:26:08.515Z,20.10
2022-07-25T05:28:36.596Z,20.20
2022-07-25T05:31:04.772Z,20.30
2022-07-25T05:33:35.194Z,20.40
2022-07-25T05:36:05.126Z,20.50
2022-07-25T05:38:33.483Z,20.60
2022-07-25T05:41:01.610Z,20.70
2022-07-25T05:43:29.753Z,20.70
2022-07-25T05:46:02.775Z,20.70
2022-07-25T05:48:30.933Z,20.70
2022-07-25T12:05:05.706Z,28.60
2022-07-25T12:07:41.847Z,28.30
2022-07-25T12:10:12.189Z,28.10
2022-07-25T12:12:45.176Z,27.90
2022-07-25T12:15:14.983Z,27.80
2022-07-25T12:17:44.233Z,27.70
2022-07-25T12:20:18.643Z,27.80
2022-07-25T12:22:47.179Z,28.10
2022-07-25T12:25:15.652Z,28.30
2022-07-25T12:27:44.366Z,28.50
2022-07-25T12:30:13.671Z,28.80
2022-07-25T12:32:42.379Z,29.00
2022-07-25T12:35:12.443Z,29.10
2022-07-25T12:37:42.877Z,29.30
2022-07-25T12:40:13.874Z,29.90
2022-07-25T12:42:42.176Z,31.10
2022-07-25T12:45:11.173Z,32.40
2022-07-25T12:47:39.974Z,33.60
2022-07-25T12:50:09.073Z,34.70
2022-07-25T12:52:38.256Z,35.60
2022-07-25T12:55:09.699Z,36.00
2022-07-25T12:57:38.551Z,36.40
2022-07-25T13:00:10.522Z,36.80
2022-07-25T13:02:39.085Z,36.90
2022-07-25T13:05:08.276Z,36.60
2022-07-25T13:07:36.500Z,35.80
2022-07-25T13:10:05.368Z,34.70
2022-07-25T13:12:34.897Z,34.00
2022-07-25T13:15:03.130Z,33.70
2022-07-25T13:17:32.389Z,33.30
2022-07-25T13:20:00.672Z,33.40
2022-07-25T13:22:29.150Z,33.50
2022-07-25T13:24:57.243Z,33.50
2022-07-25T13:27:25.443Z,34.30
2022-07-25T13:29:55.158Z,35.40
2022-07-25T13:32:24.835Z,36.40
2022-07-25T13:34:52.903Z,37.40
2022-07-25T13:37:21.134Z,38.00
2022-07-25T13:39:49.346Z,38.40
2022-07-25T13:42:17.542Z,38.20
2022-07-25T13:44:45.652Z,37.60
2022-07-25T13:47:15.275Z,36.50
2022-07-25T13:49:43.516Z,35.50
2022-07-25T13:52:15.520Z,34.90
2022-07-25T13:54:43.909Z,35.00
2022-07-25T13:57:12.156Z,35.20
2022-07-25T13:59:40.363Z,35.00
2022-07-25T14:02:08.745Z,34.70
2022-07-25T14:04:38.338Z,34.70
2022-07-25T14:07:06.755Z,35.00
2022-07-25T14:09:35.032Z,35.20
2022-07-25T14:12:03.480Z,34.80
2022-07-25T14:14:31.575Z,34.30
2022-07-25T14:16:59.772Z,34.10
2022-07-25T14:19:27.991Z,34.20
2022-07-25T14:21:57.547Z,34.50
2022-07-25T14:24:25.838Z,34.60
2022-07-25T14:26:55.148Z,34.50
2022-07-25T14:29:28.611Z,34.30
2022-07-25T14:31:58.742Z,34.20
2022-07-25T14:34:26.984Z,34.10
2022-07-25T14:36:55.171Z,34.10
2022-07-25T14:39:24.708Z,34.10
2022-07-25T14:41:53.270Z,33.70
2022-07-25T14:44:21.927Z,33.10
2022-07-25T14:46:51.303Z,32.40
2022-07-25T14:49:19.592Z,31.70
2022-07-25T14:51:48.830Z,31.30
2022-07-25T14:54:17.221Z,30.80
2022-07-25T14:56:46.906Z,30.50
2022-07-25T14:59:15.052Z,30.20
2022-07-25T15:01:43.580Z,29.90
2022-07-25T15:04:11.793Z,29.70
2022-07-25T15:06:40.000Z,29.70
2022-07-25T15:09:08.697Z,29.60
2022-07-25T15:11:37.380Z,29.70
2022-07-25T15:14:06.957Z,29.90
2022-07-25T15:16:35.406Z,30.20
2022-07-25T15:19:16.319Z,30.50
2022-07-25T15:21:45.395Z,30.70
2022-07-25T15:24:13.737Z,30.70
2022-07-25T15:26:42.173Z,30.50
2022-07-25T15:29:13.522Z,29.90
2022-07-25T15:31:41.785Z,29.50
2022-07-25T15:34:09.872Z,29.30
2022-07-25T15:36:38.080Z,29.00
2022-07-25T15:39:06.475Z,28.80
2022-07-25T15:41:35.011Z,28.60
2022-07-25T15:44:03.363Z,28.50
2022-07-25T15:46:33.075Z,28.30
2022-07-25T15:49:02.577Z,28.20
2022-07-25T15:51:30.752Z,28.20
2022-07-25T15:53:58.833Z,28.20
2022-07-25T15:56:26.971Z,28.30
2022-07-25T15:58:55.523Z,28.50
2022-07-25T16:01:23.660Z,28.80
2022-07-25T16:03:53.395Z,29.10
2022-07-25T16:06:22.308Z,29.10
2022-07-25T16:08:51.816Z,29.10
2022-07-25T16:11:20.131Z,29.00
2022-07-25T16:13:51.398Z,28.70
2022-07-25T16:16:26.123Z,28.50
2022-07-25T16:19:01.409Z,28.20
2022-07-25T16:21:31.771Z,28.00
2022-07-25T16:24:00.260Z,27.80
2022-07-25T16:26:41.439Z,27.70
2022-07-25T16:29:10.081Z,27.60
2022-07-25T16:31:38.583Z,27.60
2022-07-25T16:34:09.373Z,27.50
2022-07-25T16:36:40.204Z,27.50
2022-07-25T16:39:09.415Z,27.60
2022-07-25T16:41:49.108Z,27.70
2022-07-25T16:44:18.287Z,27.70
2022-07-25T16:46:46.795Z,27.70
2022-07-25T16:49:16.890Z,27.50
2022-07-25T16:51:46.093Z,27.30
2022-07-25T16:54:14.562Z,27.20
2022-07-25T16:56:43.374Z,27.10
2022-07-25T16:59:11.946Z,27.00
2022-07-25T17:01:40.282Z,27.00
2022-07-25T17:04:12.909Z,27.00
2022-07-25T17:06:43.170Z,27.00
2022-07-25T17:09:11.751Z,27.00
2022-07-25T17:11:39.950Z,26.90
2022-07-25T17:14:08.078Z,26.80
2022-07-25T17:16:36.189Z,26.80
2022-07-25T17:19:05.280Z,26.60
2022-07-25T17:21:33.582Z,26.50
2022-07-25T17:24:03.162Z,26.30
2022-07-25T17:26:31.334Z,26.10
2022-07-25T17:28:59.661Z,26.00
2022-07-25T17:31:28.051Z,25.80
2022-07-25T17:33:56.165Z,25.60
2022-07-25T17:36:24.271Z,25.50
2022-07-25T17:38:52.503Z,25.40
2022-07-25T17:41:22.152Z,25.20
2022-07-25T17:43:52.337Z,25.10
2022-07-25T17:46:20.546Z,25.10
2022-07-25T17:48:48.767Z,25.00
2022-07-25T17:51:16.924Z,25.00
2022-07-25T17:53:45.075Z,25.00
2022-07-25T17:56:13.079Z,25.00
2022-07-25T17:58:42.612Z,25.00
2022-07-25T18:01:10.888Z,24.90
2022-07-25T18:03:39.257Z,24.90
2022-07-25T18:06:07.461Z,24.90
2022-07-25T18:08:36.086Z,24.80
2022-07-25T18:11:04.452Z,24.80
2022-07-25T18:13:32.752Z,24.90
2022-07-25T18:16:02.289Z,24.80
2022-07-25T18:18:31.599Z,24.80
2022-07-25T18:20:59.742Z,24.80
2022-07-25T18:23:28.788Z,24.70
2022-07-25T18:25:56.873Z,24.60
2022-07-25T18:28:25.265Z,24.50
2022-07-25T18:30:55.000Z,24.40
2022-07-25T18:33:25.561Z,24.40
2022-07-25T18:35:53.759Z,24.40
2022-07-25T18:38:21.935Z,24.30
2022-07-25T18:41:06.568Z,24.30
2022-07-25T18:43:38.266Z,24.20
2022-07-25T18:46:06.586Z,24.20
2022-07-25T18:48:39.105Z,24.20
2022-07-25T18:51:07.531Z,24.20
2022-07-25T18:53:36.295Z,24.10
2022-07-25T18:56:06.695Z,24.10
2022-07-25T18:58:35.487Z,24.10
2022-07-25T19:01:03.979Z,24.00
2022-07-25T19:03:34.052Z,24.00
2022-07-25T19:06:03.885Z,24.00
2022-07-25T19:08:33.164Z,23.90
2022-07-25T19:11:01.366Z,23.80
2022-07-25T19:16:18.218Z,23.60
2022-07-25T19:18:46.406Z,23.60
2022-07-25T19:21:16.764Z,23.50
2022-07-25T19:23:50.496Z,23.40
2022-07-25T19:26:20.029Z,23.40
2022-07-25T19:28:48.474Z,23.30
2022-07-25T19:31:16.773Z,23.30
2022-07-25T19:33:46.143Z,23.30
2022-07-25T19:36:16.003Z,23.20
2022-07-25T19:38:44.144Z,23.10
2022-07-25T19:41:12.217Z,23.00
2022-07-25T19:43:40.373Z,23.00
2022-07-25T19:46:08.567Z,22.90
2022-07-25T19:48:36.748Z,22.80
2022-07-25T19:51:05.052Z,22.80
2022-07-25T19:53:34.499Z,22.80
2022-07-25T19:56:02.678Z,22.70
2022-07-25T19:58:34.085Z,22.60
2022-07-25T20:01:04.915Z,22.50
2022-07-25T20:03:33.017Z,22.40
2022-07-25T20:06:06.027Z,22.40
2022-07-25T20:08:39.381Z,22.30
2022-07-25T20:11:07.827Z,22.20
2022-07-25T20:13:36.158Z,22.20
2022-07-25T20:16:04.847Z,22.00
2022-07-25T20:18:33.371Z,21.90
2022-07-25T20:21:02.029Z,21.80
2022-07-25T20:23:30.745Z,21.70
2022-07-25T20:26:02.254Z,21.60
2022-07-25T20:28:30.481Z,21.40
2022-07-25T20:30:59.345Z,21.40
2022-07-25T20:33:27.997Z,21.30
2022-07-25T20:35:56.697Z,21.30
2022-07-25T20:38:28.400Z,21.20
2022-07-25T20:40:56.876Z,21.20
2022-07-25T20:43:26.656Z,21.00
2022-07-25T20:45:55.303Z,20.90
2022-07-25T20:48:23.498Z,20.80
2022-07-25T20:51:04.675Z,20.80
2022-07-25T20:56:29.411Z,20.90
2022-07-25T21:02:41.876Z,21.00
2022-07-25T21:05:40.886Z,21.10
2022-07-25T21:08:17.617Z,21.10
2022-07-25T21:11:07.727Z,20.90
2022-07-25T21:16:51.219Z,20.70
2022-07-25T21:19:37.433Z,20.50
2022-07-25T21:22:15.214Z,20.40
2022-07-25T21:25:12.309Z,20.20
2022-07-25T21:28:05.782Z,20.00
2022-07-25T21:30:37.482Z,19.90
2022-07-25T21:33:14.426Z,19.70
2022-07-25T21:35:46.749Z,19.70
2022-07-25T21:38:26.757Z,19.60
2022-07-25T21:40:57.363Z,19.50
2022-07-25T21:43:25.661Z,19.40
2022-07-25T21:45:53.725Z,19.30
2022-07-25T21:48:43.932Z,19.20
2022-07-25T21:51:14.107Z,19.20
2022-07-25T21:53:47.727Z,19.00
2022-07-25T22:02:02.141Z,18.90
2022-07-25T22:04:54.538Z,18.80
2022-07-25T22:07:29.274Z,18.70
2022-07-25T22:10:16.057Z,18.60
2022-07-25T22:16:14.310Z,18.60
2022-07-25T22:25:40.480Z,18.60
2022-07-25T22:28:26.360Z,18.60
2022-07-25T22:31:52.408Z,18.60
2022-07-25T22:34:44.154Z,18.60
2022-07-25T22:40:42.403Z,18.60
2022-07-25T22:46:21.532Z,18.70
2022-07-25T22:49:27.350Z,18.80
2022-07-25T22:52:02.767Z,18.80
2022-07-25T22:54:44.565Z,18.80
2022-07-25T22:57:37.799Z,18.80
2022-07-25T23:00:43.631Z,18.90
2022-07-25T23:03:42.841Z,19.00
2022-07-25T23:12:45.057Z,19.10
2022-07-25T23:18:39.826Z,19.20
2022-07-25T23:27:48.757Z,19.50
2022-07-25T23:30:54.018Z,19.50
2022-07-25T23:33:57.086Z,19.60
2022-07-25T23:42:18.376Z,19.60
2022-07-25T23:45:02.452Z,19.60
2022-07-25T23:47:47.249Z,19.50
2022-07-25T23:50:32.823Z,19.50
2022-07-25T23:53:22.317Z,19.40
2022-07-25T23:56:25.850Z,19.40
